Terminal Aerodrome Forecast
Issued by NWS Sterling, VA

Home | Current Version | Previous Version | Text Only | Print | Product List | Glossary On
Versions: 1 2 3 4 5 6 7 8 9 10 11 12 13 14 15
000
FTUS41 KLWX 212332
TAFMRB
TAF
KMRB 212332Z 2200/2224 VRB04KT P6SM SCT200
     FM220900 00000KT 5SM BR SCT200
     FM221200 21005KT P6SM SCT200
     FM221600 22010G18KT P6SM BKN050=

USA.gov is the U.S. government's official web portal to all federal, state and local government web resources and services.